Flugplatz Vettweiss-Soller (UL)

Hier findest Du alle Informationen zum Flugplatz Vettweiss-Soller (UL).

Informationen für Piloten zum Flugplatz Vettweiss-Soller

Hier findest Du alle relevanten Informationen, die Du als Pilot benötigst, um Vettweiss-Soller anzufliegen.

Flugplatz: Vettweiss-Soller ICAO-Code: UL Flugplatz
Frequenz Turm: 136,090 Mhz GAFOR Gebiet: 34
Frequenz Ground: 136,090 Mhz Mogas: nein
Platzrunde: O 1000 ft Landegebühr: -
Platzhöhe: - Sunrise: 06:51 Uhr UTC
Pisten: 14/32 - 360 m x 20 m, GRAS Sunset: 15:45 Uhr UTC

Flugwetter am Flugplatz Vettweiss-Soller

Die METAR Information stammen aus EDDK (42.55 km entfernt).

METAR Code:
2019/11/14 17:50
EDDK 141750Z 10004KT 070V140 CAVOK 06/01 Q1003 NOSIG

Flugschulen am Flugplatz Vettweiss-Soller

Am Flugplatz Vettweiss-Soller gibt es leider keine Flugschule.

Benachbarte Flugplätze und Flugschulen

Es gibt 18 weitere Flugplätze in einem Umkreis von 50 km um den Flugplatz Vettweiss-Soller.

Jetzt anmelden

Passwort vergessen

Anzeige: Skymap
Umfrage Archiv

Lasst Ihr Euch bei Überlandflügen von FIS begleiten?

Ja, immer!
54.1 %
Ja, unregelmäßig!
27 %
Ja, aber nur selten!
18.9 %
Nein, nie!
0 %
Stimmen: 37 | Diskussion
Anzeige: Roland Aircraft
Statistik Alle Mitglieder

Aktuell sind 52 Besucher online, davon 4 Mitglieder und 48 Gäste.


Mitglieder online:
monstertyp  stefanf79  skyfool  wolfgang w 

Anzeige: VFR Sprechfunk Simulator


Anzeige: Pocket FMS